• Join FlightAware (Why Join?)
  • Login
  • US Flag 
Rudolph Flight #1: Scheduled 
09:38PM EST


 

Airport Tracker/Info


-or-


 

Live Flight TrackerFlight Track Log ✈ XOJ549 ✈ 26-Jun-2013 ✈ KHOU - KCRP

Flight Track Log - Related Links

Times and Time Zones

All times are in EDT time to prevent confusion due to time zone crossing. See the XOJ549 flight status page for this flight to view local times or setup timezone preferences in your user account.

Time Position Orientation Groundspeed Altitude Reporting Facility
EDT Latitude Longitude Course Direction KTS MPH feet Rate Location/Type
04:27PM 29.5781 -95.2675 165° South 229 264 4,500  Level Houston Center
04:28PM 29.5083 -95.2714 183° South 249 287 6,900 3,480 Climbing Houston Center
04:29PM 29.4111 -95.2842 187° South 295 339 11,800 3,960 Climbing Houston Center
04:30PM 29.3489 -95.3625 228° Southwest 335 386 15,100 1,980 Climbing Houston Center
04:31PM 29.2914 -95.4528 234° Southwest 349 402 16,000 420 Climbing Houston Center
04:32PM 29.2325 -95.5464 234° Southwest 361 415 16,000  Level Houston Center
04:33PM 29.1689 -95.6356 231° Southwest 360 414 16,000  Level Houston Center
04:34PM 29.1056 -95.7242 231° Southwest 361 415 16,000  Level Houston Center
04:35PM 29.0283 -95.8306 230° Southwest 362 417 16,000  Level Houston Center
04:36PM 28.9642 -95.9194 230° Southwest 362 417 16,000 -60 Level Houston Center
04:37PM 28.9081 -95.9992 231° Southwest 363 418 15,900 -60 Descending Houston Center
04:38PM 28.8311 -96.1061 231° Southwest 362 417 15,900  Level Houston Center
04:39PM 28.7661 -96.1950 230° Southwest 364 419 15,900  Level Houston Center
04:40PM 28.7028 -96.2842 231° Southwest 362 417 15,900  Level Houston Center
04:41PM 28.6375 -96.3725 230° Southwest 363 418 15,900  Level Houston Center
04:42PM 28.5725 -96.4614 230° Southwest 363 418 15,900  Level Houston Center
04:43PM 28.5081 -96.5519 231° Southwest 365 420 15,900  Level Houston Center
04:44PM 28.4661 -96.6114 231° Southwest 366 421 15,900  Level Houston Center
04:44PM 28.4294 -96.6603 230° Southwest 368 423 15,900  Level Houston Center
04:45PM 28.3928 -96.7078 229° Southwest 368 423 15,900 -1,140 Level Houston Center
04:46PM 28.3167 -96.8164 231° Southwest 360 414 13,900 -1,860 Descending Houston Center
04:47PM 28.2594 -96.9056 234° Southwest 334 384 11,800 -2,040 Descending Houston Center
04:48PM 28.2203 -96.9706 236° Southwest 310 357 10,200 -1,800 Descending Houston Center
04:48PM 28.2006 -97.0014 234° Southwest 309 356 9,500 -1,860 Descending Houston Center
04:49PM 28.1631 -97.0617 235° Southwest 285 328 8,000 -2,040 Descending Houston Center
04:50PM 28.1131 -97.1425 235° Southwest 277 319 5,900 -1,500 Descending Houston Center
04:51PM 28.0664 -97.2156 234° Southwest 272 313 4,800 -1,080 Descending Houston Center
04:52PM 28.0394 -97.2572 234° Southwest 266 306 4,100 -660 Descending Houston Center
04:53PM 28.0164 -97.2986 238° Southwest 271 312 4,000 -180 Descending Houston Center
04:53PM 27.9931 -97.3325 232° Southwest 255 293 3,900 -720 Descending Houston Center
04:54PM 27.9753 -97.3633 237° Southwest 264 304 3,300 -960 Descending Houston Center
04:55PM 27.9139 -97.4572 234° Southwest 239 275 2,000 -540 Descending Houston Center
04:56PM 27.8661 -97.5017 219° Southwest 203 234 2,000 -300 Level Houston Center
04:57PM 27.8214 -97.5339 213° Southwest 173 199 1,400 -780 Descending Houston Center
04:58PM 27.7869 -97.5267 169° South 122 140 500 -900 Descending Houston Center
05:00PM 27.7667 -97.5000 204° Southwest  Level FlightAware Approximate
05:07PM 27.7704 -97.5012 204° Southwest  Level Estimated